sensor_id;sensor_type;location;lat;lon;timestamp;P1;durP1;ratioP1;P2;durP2;ratioP2
77453;SDS011;66538;53.150;18.160;2023-07-31T00:00:53;5.00;;;2.70;;
77453;SDS011;66538;53.150;18.160;2023-07-31T00:03:26;4.30;;;2.10;;
77453;SDS011;66538;53.150;18.160;2023-07-31T00:05:52;5.00;;;2.40;;
77453;SDS011;66538;53.150;18.160;2023-07-31T00:08:19;4.80;;;2.10;;
77453;SDS011;66538;53.150;18.160;2023-07-31T00:10:46;5.40;;;2.40;;
77453;SDS011;66538;53.150;18.160;2023-07-31T00:13:12;4.00;;;1.70;;
77453;SDS011;66538;53.150;18.160;2023-07-31T00:15:39;4.30;;;2.10;;
77453;SDS011;66538;53.150;18.160;2023-07-31T00:18:05;4.50;;;2.30;;
77453;SDS011;66538;53.150;18.160;2023-07-31T00:20:32;3.90;;;2.10;;
77453;SDS011;66538;53.150;18.160;2023-07-31T00:22:58;4.90;;;1.90;;
77453;SDS011;66538;53.150;18.160;2023-07-31T00:25:25;5.50;;;2.00;;
77453;SDS011;66538;53.150;18.160;2023-07-31T00:27:51;5.10;;;2.00;;
77453;SDS011;66538;53.150;18.160;2023-07-31T00:30:18;4.80;;;2.00;;
77453;SDS011;66538;53.150;18.160;2023-07-31T00:32:44;3.60;;;1.80;;
77453;SDS011;66538;53.150;18.160;2023-07-31T00:35:11;5.90;;;2.40;;
77453;SDS011;66538;53.150;18.160;2023-07-31T00:37:38;5.20;;;2.60;;
77453;SDS011;66538;53.150;18.160;2023-07-31T00:40:04;4.90;;;2.10;;
77453;SDS011;66538;53.150;18.160;2023-07-31T00:42:31;4.00;;;2.10;;
77453;SDS011;66538;53.150;18.160;2023-07-31T00:44:58;4.00;;;2.10;;
77453;SDS011;66538;53.150;18.160;2023-07-31T00:47:25;6.10;;;2.20;;
77453;SDS011;66538;53.150;18.160;2023-07-31T00:49:53;3.90;;;1.80;;
77453;SDS011;66538;53.150;18.160;2023-07-31T00:52:20;4.60;;;1.70;;
77453;SDS011;66538;53.150;18.160;2023-07-31T00:54:46;6.10;;;2.60;;
77453;SDS011;66538;53.150;18.160;2023-07-31T00:59:41;5.90;;;2.10;;
77453;SDS011;66538;53.150;18.160;2023-07-31T01:02:08;5.30;;;2.30;;
77453;SDS011;66538;53.150;18.160;2023-07-31T01:04:35;5.00;;;2.50;;
77453;SDS011;66538;53.150;18.160;2023-07-31T01:07:06;6.30;;;2.80;;
77453;SDS011;66538;53.150;18.160;2023-07-31T01:12:12;6.10;;;2.90;;
77453;SDS011;66538;53.150;18.160;2023-07-31T01:14:52;5.90;;;2.80;;
77453;SDS011;66538;53.150;18.160;2023-07-31T01:17:27;5.30;;;2.40;;
77453;SDS011;66538;53.150;18.160;2023-07-31T01:19:58;5.80;;;2.90;;
77453;SDS011;66538;53.150;18.160;2023-07-31T01:31:26;4.90;;;2.60;;
77453;SDS011;66538;53.150;18.160;2023-07-31T01:33:56;4.30;;;2.60;;
77453;SDS011;66538;53.150;18.160;2023-07-31T01:36:26;5.80;;;2.70;;
77453;SDS011;66538;53.150;18.160;2023-07-31T01:38:57;4.70;;;2.40;;
77453;SDS011;66538;53.150;18.160;2023-07-31T01:41:25;4.80;;;2.70;;
77453;SDS011;66538;53.150;18.160;2023-07-31T01:43:52;6.60;;;2.60;;
77453;SDS011;66538;53.150;18.160;2023-07-31T01:46:19;4.90;;;2.50;;
77453;SDS011;66538;53.150;18.160;2023-07-31T01:48:45;4.90;;;2.50;;
77453;SDS011;66538;53.150;18.160;2023-07-31T01:51:12;4.70;;;2.50;;
77453;SDS011;66538;53.150;18.160;2023-07-31T01:53:39;6.20;;;2.80;;
77453;SDS011;66538;53.150;18.160;2023-07-31T01:56:05;6.40;;;3.10;;
77453;SDS011;66538;53.150;18.160;2023-07-31T01:58:33;5.00;;;2.80;;
77453;SDS011;66538;53.150;18.160;2023-07-31T02:00:59;5.90;;;2.90;;
77453;SDS011;66538;53.150;18.160;2023-07-31T02:03:26;6.30;;;3.00;;
77453;SDS011;66538;53.150;18.160;2023-07-31T02:05:53;4.90;;;2.20;;
77453;SDS011;66538;53.150;18.160;2023-07-31T02:08:20;9.10;;;2.60;;
77453;SDS011;66538;53.150;18.160;2023-07-31T02:10:46;4.20;;;2.20;;
77453;SDS011;66538;53.150;18.160;2023-07-31T02:13:13;7.90;;;2.50;;
77453;SDS011;66538;53.150;18.160;2023-07-31T02:15:40;4.20;;;2.50;;
77453;SDS011;66538;53.150;18.160;2023-07-31T02:18:06;5.90;;;2.60;;
77453;SDS011;66538;53.150;18.160;2023-07-31T02:20:33;4.20;;;2.50;;
77453;SDS011;66538;53.150;18.160;2023-07-31T02:23:02;5.50;;;2.50;;
77453;SDS011;66538;53.150;18.160;2023-07-31T02:25:29;5.70;;;2.40;;
77453;SDS011;66538;53.150;18.160;2023-07-31T02:27:55;5.00;;;2.90;;
77453;SDS011;66538;53.150;18.160;2023-07-31T02:30:22;6.90;;;3.20;;
77453;SDS011;66538;53.150;18.160;2023-07-31T02:32:49;4.90;;;2.50;;
77453;SDS011;66538;53.150;18.160;2023-07-31T02:35:16;4.70;;;2.50;;
77453;SDS011;66538;53.150;18.160;2023-07-31T02:37:44;5.70;;;2.80;;
77453;SDS011;66538;53.150;18.160;2023-07-31T02:40:11;5.30;;;2.80;;
77453;SDS011;66538;53.150;18.160;2023-07-31T02:42:38;6.60;;;2.50;;
77453;SDS011;66538;53.150;18.160;2023-07-31T02:45:05;5.90;;;2.50;;
77453;SDS011;66538;53.150;18.160;2023-07-31T02:47:32;5.20;;;2.60;;
77453;SDS011;66538;53.150;18.160;2023-07-31T02:49:58;7.50;;;2.90;;
77453;SDS011;66538;53.150;18.160;2023-07-31T02:52:26;7.70;;;3.00;;
77453;SDS011;66538;53.150;18.160;2023-07-31T02:54:52;7.90;;;3.30;;
77453;SDS011;66538;53.150;18.160;2023-07-31T02:57:19;4.20;;;2.30;;
77453;SDS011;66538;53.150;18.160;2023-07-31T02:59:46;6.00;;;3.10;;
77453;SDS011;66538;53.150;18.160;2023-07-31T03:02:12;7.30;;;3.20;;
77453;SDS011;66538;53.150;18.160;2023-07-31T03:04:39;5.50;;;3.00;;
77453;SDS011;66538;53.150;18.160;2023-07-31T03:07:06;7.60;;;2.70;;
77453;SDS011;66538;53.150;18.160;2023-07-31T03:09:33;5.40;;;2.70;;
77453;SDS011;66538;53.150;18.160;2023-07-31T03:11:59;6.40;;;2.60;;
77453;SDS011;66538;53.150;18.160;2023-07-31T03:14:26;4.70;;;2.10;;
77453;SDS011;66538;53.150;18.160;2023-07-31T03:16:53;4.60;;;2.30;;
77453;SDS011;66538;53.150;18.160;2023-07-31T03:19:20;4.60;;;2.60;;
77453;SDS011;66538;53.150;18.160;2023-07-31T03:21:47;6.50;;;3.30;;
77453;SDS011;66538;53.150;18.160;2023-07-31T03:24:13;5.30;;;2.40;;
77453;SDS011;66538;53.150;18.160;2023-07-31T03:26:40;5.10;;;2.90;;
77453;SDS011;66538;53.150;18.160;2023-07-31T03:29:08;5.80;;;2.60;;
77453;SDS011;66538;53.150;18.160;2023-07-31T03:31:35;6.00;;;3.20;;
77453;SDS011;66538;53.150;18.160;2023-07-31T03:34:01;6.10;;;3.20;;
77453;SDS011;66538;53.150;18.160;2023-07-31T03:36:28;6.10;;;3.30;;
77453;SDS011;66538;53.150;18.160;2023-07-31T03:38:54;7.30;;;3.10;;
77453;SDS011;66538;53.150;18.160;2023-07-31T03:41:21;4.80;;;2.60;;
77453;SDS011;66538;53.150;18.160;2023-07-31T03:43:49;5.90;;;2.70;;
77453;SDS011;66538;53.150;18.160;2023-07-31T03:46:19;6.00;;;2.70;;
77453;SDS011;66538;53.150;18.160;2023-07-31T03:48:45;6.80;;;2.90;;
77453;SDS011;66538;53.150;18.160;2023-07-31T03:51:12;6.50;;;2.90;;
77453;SDS011;66538;53.150;18.160;2023-07-31T03:53:39;7.90;;;2.90;;
77453;SDS011;66538;53.150;18.160;2023-07-31T03:56:05;7.20;;;3.00;;
77453;SDS011;66538;53.150;18.160;2023-07-31T03:58:32;4.50;;;2.40;;
77453;SDS011;66538;53.150;18.160;2023-07-31T04:00:59;6.00;;;2.90;;
77453;SDS011;66538;53.150;18.160;2023-07-31T04:03:25;4.50;;;2.60;;
77453;SDS011;66538;53.150;18.160;2023-07-31T04:05:53;5.10;;;2.60;;
77453;SDS011;66538;53.150;18.160;2023-07-31T04:08:21;4.70;;;2.30;;
77453;SDS011;66538;53.150;18.160;2023-07-31T04:10:48;6.40;;;2.50;;
77453;SDS011;66538;53.150;18.160;2023-07-31T04:13:15;4.90;;;2.00;;
77453;SDS011;66538;53.150;18.160;2023-07-31T04:15:42;4.60;;;2.60;;
77453;SDS011;66538;53.150;18.160;2023-07-31T04:18:08;5.70;;;2.60;;
77453;SDS011;66538;53.150;18.160;2023-07-31T04:20:35;5.60;;;2.50;;
77453;SDS011;66538;53.150;18.160;2023-07-31T04:23:01;4.20;;;2.40;;
77453;SDS011;66538;53.150;18.160;2023-07-31T04:25:28;5.00;;;2.40;;
77453;SDS011;66538;53.150;18.160;2023-07-31T04:27:54;5.60;;;2.70;;
77453;SDS011;66538;53.150;18.160;2023-07-31T04:30:21;5.50;;;2.40;;
77453;SDS011;66538;53.150;18.160;2023-07-31T04:32:47;6.30;;;2.80;;
77453;SDS011;66538;53.150;18.160;2023-07-31T04:35:14;5.40;;;2.10;;
77453;SDS011;66538;53.150;18.160;2023-07-31T04:37:41;7.80;;;3.00;;
77453;SDS011;66538;53.150;18.160;2023-07-31T04:40:08;6.30;;;2.60;;
77453;SDS011;66538;53.150;18.160;2023-07-31T04:42:35;5.50;;;2.70;;
77453;SDS011;66538;53.150;18.160;2023-07-31T04:45:01;5.40;;;2.60;;
77453;SDS011;66538;53.150;18.160;2023-07-31T04:47:28;5.60;;;2.90;;
77453;SDS011;66538;53.150;18.160;2023-07-31T04:49:54;7.10;;;2.70;;
77453;SDS011;66538;53.150;18.160;2023-07-31T04:52:21;8.60;;;3.00;;
77453;SDS011;66538;53.150;18.160;2023-07-31T04:54:48;6.00;;;2.60;;
77453;SDS011;66538;53.150;18.160;2023-07-31T04:57:14;5.20;;;2.70;;
77453;SDS011;66538;53.150;18.160;2023-07-31T04:59:41;6.00;;;2.20;;
77453;SDS011;66538;53.150;18.160;2023-07-31T05:02:08;5.20;;;1.90;;
77453;SDS011;66538;53.150;18.160;2023-07-31T05:04:35;6.00;;;2.60;;
77453;SDS011;66538;53.150;18.160;2023-07-31T05:07:01;4.50;;;2.10;;
77453;SDS011;66538;53.150;18.160;2023-07-31T05:09:28;4.60;;;2.40;;
77453;SDS011;66538;53.150;18.160;2023-07-31T05:11:54;5.20;;;2.10;;
77453;SDS011;66538;53.150;18.160;2023-07-31T05:14:21;5.10;;;2.30;;
77453;SDS011;66538;53.150;18.160;2023-07-31T05:16:47;4.50;;;2.20;;
77453;SDS011;66538;53.150;18.160;2023-07-31T05:19:14;4.20;;;1.80;;
77453;SDS011;66538;53.150;18.160;2023-07-31T05:21:41;4.30;;;2.50;;
77453;SDS011;66538;53.150;18.160;2023-07-31T05:24:07;6.70;;;2.40;;
77453;SDS011;66538;53.150;18.160;2023-07-31T05:26:34;4.00;;;1.80;;
77453;SDS011;66538;53.150;18.160;2023-07-31T05:29:01;4.40;;;1.80;;
77453;SDS011;66538;53.150;18.160;2023-07-31T05:31:27;5.00;;;1.70;;
77453;SDS011;66538;53.150;18.160;2023-07-31T05:33:54;4.80;;;2.00;;
77453;SDS011;66538;53.150;18.160;2023-07-31T05:36:21;6.20;;;2.20;;
77453;SDS011;66538;53.150;18.160;2023-07-31T05:38:47;5.00;;;2.10;;
77453;SDS011;66538;53.150;18.160;2023-07-31T05:41:14;5.70;;;2.20;;
77453;SDS011;66538;53.150;18.160;2023-07-31T05:43:41;6.40;;;2.10;;
77453;SDS011;66538;53.150;18.160;2023-07-31T05:46:07;6.90;;;2.30;;
77453;SDS011;66538;53.150;18.160;2023-07-31T05:48:35;3.50;;;1.70;;
77453;SDS011;66538;53.150;18.160;2023-07-31T05:51:02;5.10;;;2.40;;
77453;SDS011;66538;53.150;18.160;2023-07-31T05:53:29;4.90;;;2.10;;
77453;SDS011;66538;53.150;18.160;2023-07-31T05:55:55;5.00;;;2.00;;
77453;SDS011;66538;53.150;18.160;2023-07-31T05:58:22;5.80;;;2.00;;
77453;SDS011;66538;53.150;18.160;2023-07-31T06:00:48;6.60;;;2.20;;
77453;SDS011;66538;53.150;18.160;2023-07-31T06:03:15;5.60;;;2.20;;
77453;SDS011;66538;53.150;18.160;2023-07-31T06:05:41;7.10;;;2.30;;
77453;SDS011;66538;53.150;18.160;2023-07-31T06:08:08;4.70;;;1.90;;
77453;SDS011;66538;53.150;18.160;2023-07-31T06:10:34;4.40;;;2.20;;
77453;SDS011;66538;53.150;18.160;2023-07-31T06:13:01;5.90;;;2.00;;
77453;SDS011;66538;53.150;18.160;2023-07-31T06:15:28;3.20;;;1.70;;
77453;SDS011;66538;53.150;18.160;2023-07-31T06:17:54;4.90;;;2.10;;
77453;SDS011;66538;53.150;18.160;2023-07-31T06:20:22;4.10;;;2.30;;
77453;SDS011;66538;53.150;18.160;2023-07-31T06:22:48;6.40;;;2.30;;
77453;SDS011;66538;53.150;18.160;2023-07-31T06:25:15;5.70;;;2.50;;
77453;SDS011;66538;53.150;18.160;2023-07-31T06:27:41;4.90;;;1.80;;
77453;SDS011;66538;53.150;18.160;2023-07-31T06:33:27;5.40;;;2.10;;
77453;SDS011;66538;53.150;18.160;2023-07-31T06:35:54;5.30;;;2.10;;
77453;SDS011;66538;53.150;18.160;2023-07-31T06:38:24;6.00;;;2.20;;
77453;SDS011;66538;53.150;18.160;2023-07-31T06:40:51;6.20;;;2.20;;
77453;SDS011;66538;53.150;18.160;2023-07-31T06:43:18;5.40;;;2.00;;
77453;SDS011;66538;53.150;18.160;2023-07-31T06:45:45;4.50;;;1.80;;
77453;SDS011;66538;53.150;18.160;2023-07-31T06:48:12;6.10;;;1.80;;
77453;SDS011;66538;53.150;18.160;2023-07-31T06:50:39;3.60;;;1.60;;
77453;SDS011;66538;53.150;18.160;2023-07-31T06:53:05;4.00;;;1.50;;
77453;SDS011;66538;53.150;18.160;2023-07-31T06:55:34;4.40;;;1.80;;
77453;SDS011;66538;53.150;18.160;2023-07-31T07:00:27;3.90;;;1.50;;
77453;SDS011;66538;53.150;18.160;2023-07-31T07:02:55;4.40;;;1.60;;
77453;SDS011;66538;53.150;18.160;2023-07-31T07:05:21;6.20;;;1.80;;
77453;SDS011;66538;53.150;18.160;2023-07-31T07:07:49;5.50;;;1.70;;
77453;SDS011;66538;53.150;18.160;2023-07-31T07:10:17;3.70;;;1.50;;
77453;SDS011;66538;53.150;18.160;2023-07-31T07:12:44;5.00;;;2.00;;
77453;SDS011;66538;53.150;18.160;2023-07-31T07:15:12;6.10;;;1.90;;
77453;SDS011;66538;53.150;18.160;2023-07-31T07:17:38;3.90;;;1.40;;
77453;SDS011;66538;53.150;18.160;2023-07-31T07:20:05;3.90;;;1.50;;
77453;SDS011;66538;53.150;18.160;2023-07-31T07:22:33;3.40;;;1.40;;
77453;SDS011;66538;53.150;18.160;2023-07-31T07:24:59;4.90;;;1.50;;
77453;SDS011;66538;53.150;18.160;2023-07-31T07:27:26;4.20;;;1.60;;
77453;SDS011;66538;53.150;18.160;2023-07-31T07:29:52;4.30;;;1.90;;
77453;SDS011;66538;53.150;18.160;2023-07-31T07:32:20;5.50;;;1.80;;
77453;SDS011;66538;53.150;18.160;2023-07-31T07:34:47;4.20;;;1.50;;
77453;SDS011;66538;53.150;18.160;2023-07-31T07:37:15;4.20;;;1.80;;
77453;SDS011;66538;53.150;18.160;2023-07-31T07:39:42;4.70;;;1.90;;
77453;SDS011;66538;53.150;18.160;2023-07-31T07:42:10;4.80;;;1.80;;
77453;SDS011;66538;53.150;18.160;2023-07-31T07:44:36;5.00;;;2.00;;
77453;SDS011;66538;53.150;18.160;2023-07-31T07:47:03;5.20;;;2.00;;
77453;SDS011;66538;53.150;18.160;2023-07-31T07:49:33;4.30;;;1.70;;
77453;SDS011;66538;53.150;18.160;2023-07-31T07:52:01;6.20;;;1.80;;
77453;SDS011;66538;53.150;18.160;2023-07-31T07:54:29;5.40;;;2.00;;
77453;SDS011;66538;53.150;18.160;2023-07-31T07:56:56;6.70;;;1.80;;
77453;SDS011;66538;53.150;18.160;2023-07-31T07:59:23;4.10;;;1.70;;
77453;SDS011;66538;53.150;18.160;2023-07-31T08:01:49;4.10;;;1.50;;
77453;SDS011;66538;53.150;18.160;2023-07-31T08:04:16;5.00;;;1.60;;
77453;SDS011;66538;53.150;18.160;2023-07-31T08:06:43;6.10;;;1.50;;
77453;SDS011;66538;53.150;18.160;2023-07-31T08:09:09;3.60;;;1.40;;
77453;SDS011;66538;53.150;18.160;2023-07-31T08:11:36;4.80;;;1.60;;
77453;SDS011;66538;53.150;18.160;2023-07-31T08:14:03;3.80;;;1.60;;
77453;SDS011;66538;53.150;18.160;2023-07-31T08:16:30;4.60;;;1.70;;
77453;SDS011;66538;53.150;18.160;2023-07-31T08:18:56;4.80;;;1.50;;
77453;SDS011;66538;53.150;18.160;2023-07-31T08:21:23;4.60;;;1.50;;
77453;SDS011;66538;53.150;18.160;2023-07-31T08:23:50;5.80;;;1.60;;
77453;SDS011;66538;53.150;18.160;2023-07-31T08:26:18;4.20;;;1.30;;
77453;SDS011;66538;53.150;18.160;2023-07-31T08:28:45;3.80;;;1.40;;
77453;SDS011;66538;53.150;18.160;2023-07-31T08:31:12;5.20;;;1.50;;
77453;SDS011;66538;53.150;18.160;2023-07-31T08:33:39;5.20;;;1.50;;
77453;SDS011;66538;53.150;18.160;2023-07-31T08:36:06;4.90;;;1.50;;
77453;SDS011;66538;53.150;18.160;2023-07-31T08:38:33;4.40;;;1.70;;
77453;SDS011;66538;53.150;18.160;2023-07-31T08:41:00;4.80;;;1.40;;
77453;SDS011;66538;53.150;18.160;2023-07-31T08:43:26;5.20;;;1.60;;
77453;SDS011;66538;53.150;18.160;2023-07-31T08:45:54;3.80;;;1.30;;
77453;SDS011;66538;53.150;18.160;2023-07-31T08:48:22;6.20;;;1.40;;
77453;SDS011;66538;53.150;18.160;2023-07-31T08:50:51;3.90;;;1.30;;
77453;SDS011;66538;53.150;18.160;2023-07-31T08:53:19;4.00;;;1.60;;
77453;SDS011;66538;53.150;18.160;2023-07-31T08:55:46;3.30;;;1.30;;
77453;SDS011;66538;53.150;18.160;2023-07-31T08:58:13;3.70;;;1.20;;
77453;SDS011;66538;53.150;18.160;2023-07-31T09:00:40;4.90;;;1.30;;
77453;SDS011;66538;53.150;18.160;2023-07-31T09:03:14;5.10;;;1.30;;
77453;SDS011;66538;53.150;18.160;2023-07-31T09:05:45;4.90;;;1.40;;
77453;SDS011;66538;53.150;18.160;2023-07-31T09:08:13;6.40;;;1.50;;
77453;SDS011;66538;53.150;18.160;2023-07-31T09:10:42;3.80;;;1.10;;
77453;SDS011;66538;53.150;18.160;2023-07-31T09:13:10;3.40;;;1.30;;
77453;SDS011;66538;53.150;18.160;2023-07-31T09:15:36;4.80;;;1.50;;
77453;SDS011;66538;53.150;18.160;2023-07-31T09:18:04;6.00;;;1.50;;
77453;SDS011;66538;53.150;18.160;2023-07-31T09:23:06;6.10;;;1.80;;
77453;SDS011;66538;53.150;18.160;2023-07-31T09:25:38;4.10;;;1.40;;
77453;SDS011;66538;53.150;18.160;2023-07-31T09:28:06;4.40;;;1.40;;
77453;SDS011;66538;53.150;18.160;2023-07-31T09:30:48;3.50;;;1.50;;
77453;SDS011;66538;53.150;18.160;2023-07-31T09:33:20;4.50;;;1.50;;
77453;SDS011;66538;53.150;18.160;2023-07-31T09:35:46;4.40;;;1.50;;
77453;SDS011;66538;53.150;18.160;2023-07-31T09:38:14;4.90;;;1.70;;
77453;SDS011;66538;53.150;18.160;2023-07-31T09:43:11;4.80;;;1.50;;
77453;SDS011;66538;53.150;18.160;2023-07-31T09:45:42;4.30;;;1.60;;
77453;SDS011;66538;53.150;18.160;2023-07-31T09:48:11;5.30;;;1.70;;
77453;SDS011;66538;53.150;18.160;2023-07-31T09:50:40;5.60;;;1.80;;
77453;SDS011;66538;53.150;18.160;2023-07-31T09:53:09;5.10;;;1.70;;
77453;SDS011;66538;53.150;18.160;2023-07-31T09:55:37;3.40;;;1.80;;
77453;SDS011;66538;53.150;18.160;2023-07-31T10:00:35;8.40;;;1.90;;
77453;SDS011;66538;53.150;18.160;2023-07-31T10:03:08;5.20;;;1.60;;
77453;SDS011;66538;53.150;18.160;2023-07-31T10:05:45;4.60;;;1.80;;
77453;SDS011;66538;53.150;18.160;2023-07-31T10:08:18;5.10;;;1.70;;
77453;SDS011;66538;53.150;18.160;2023-07-31T10:10:46;4.60;;;1.80;;
77453;SDS011;66538;53.150;18.160;2023-07-31T10:13:13;5.60;;;2.20;;
77453;SDS011;66538;53.150;18.160;2023-07-31T10:15:40;6.90;;;2.30;;
77453;SDS011;66538;53.150;18.160;2023-07-31T10:18:12;5.70;;;2.70;;
77453;SDS011;66538;53.150;18.160;2023-07-31T10:20:39;8.20;;;3.10;;
77453;SDS011;66538;53.150;18.160;2023-07-31T10:23:09;7.10;;;3.30;;
77453;SDS011;66538;53.150;18.160;2023-07-31T10:25:37;4.30;;;2.40;;
77453;SDS011;66538;53.150;18.160;2023-07-31T10:28:05;4.80;;;2.20;;
77453;SDS011;66538;53.150;18.160;2023-07-31T10:30:33;6.60;;;2.50;;
77453;SDS011;66538;53.150;18.160;2023-07-31T10:33:01;6.00;;;2.30;;
77453;SDS011;66538;53.150;18.160;2023-07-31T10:35:29;5.60;;;2.40;;
77453;SDS011;66538;53.150;18.160;2023-07-31T10:37:55;5.80;;;2.50;;
77453;SDS011;66538;53.150;18.160;2023-07-31T10:40:29;5.50;;;2.30;;
77453;SDS011;66538;53.150;18.160;2023-07-31T10:42:56;6.40;;;2.20;;
77453;SDS011;66538;53.150;18.160;2023-07-31T10:45:34;4.30;;;2.00;;
77453;SDS011;66538;53.150;18.160;2023-07-31T10:48:04;5.00;;;2.40;;
77453;SDS011;66538;53.150;18.160;2023-07-31T10:50:47;5.60;;;2.20;;
77453;SDS011;66538;53.150;18.160;2023-07-31T10:53:30;5.10;;;2.30;;
77453;SDS011;66538;53.150;18.160;2023-07-31T10:56:01;5.20;;;2.00;;
77453;SDS011;66538;53.150;18.160;2023-07-31T10:58:29;4.10;;;2.10;;
77453;SDS011;66538;53.150;18.160;2023-07-31T11:01:04;4.20;;;2.00;;
77453;SDS011;66538;53.150;18.160;2023-07-31T11:06:09;4.20;;;1.80;;
77453;SDS011;66538;53.150;18.160;2023-07-31T11:08:41;4.10;;;1.90;;
77453;SDS011;66538;53.150;18.160;2023-07-31T11:11:10;4.30;;;1.90;;
77453;SDS011;66538;53.150;18.160;2023-07-31T11:13:40;5.10;;;2.10;;
77453;SDS011;66538;53.150;18.160;2023-07-31T11:16:09;5.00;;;1.90;;
77453;SDS011;66538;53.150;18.160;2023-07-31T11:18:41;5.40;;;2.20;;
77453;SDS011;66538;53.150;18.160;2023-07-31T11:21:12;4.60;;;2.30;;
77453;SDS011;66538;53.150;18.160;2023-07-31T11:23:40;5.30;;;2.30;;
77453;SDS011;66538;53.150;18.160;2023-07-31T11:26:07;5.70;;;2.10;;
77453;SDS011;66538;53.150;18.160;2023-07-31T11:28:34;5.00;;;1.90;;
77453;SDS011;66538;53.150;18.160;2023-07-31T11:31:02;3.50;;;1.30;;
77453;SDS011;66538;53.150;18.160;2023-07-31T11:33:29;3.80;;;1.40;;
77453;SDS011;66538;53.150;18.160;2023-07-31T11:35:55;5.70;;;2.00;;
77453;SDS011;66538;53.150;18.160;2023-07-31T11:38:23;4.00;;;1.30;;
77453;SDS011;66538;53.150;18.160;2023-07-31T11:40:52;5.60;;;2.00;;
77453;SDS011;66538;53.150;18.160;2023-07-31T11:43:21;5.60;;;2.00;;
77453;SDS011;66538;53.150;18.160;2023-07-31T11:45:49;7.10;;;2.00;;
77453;SDS011;66538;53.150;18.160;2023-07-31T11:48:24;5.80;;;2.00;;
77453;SDS011;66538;53.150;18.160;2023-07-31T11:50:54;5.90;;;1.70;;
77453;SDS011;66538;53.150;18.160;2023-07-31T11:53:28;4.20;;;1.70;;
77453;SDS011;66538;53.150;18.160;2023-07-31T11:55:59;4.60;;;1.80;;
77453;SDS011;66538;53.150;18.160;2023-07-31T11:58:27;4.70;;;1.70;;
77453;SDS011;66538;53.150;18.160;2023-07-31T12:00:57;4.00;;;1.80;;
77453;SDS011;66538;53.150;18.160;2023-07-31T12:03:25;5.80;;;1.70;;
77453;SDS011;66538;53.150;18.160;2023-07-31T12:05:53;3.70;;;1.60;;
77453;SDS011;66538;53.150;18.160;2023-07-31T12:08:22;4.40;;;1.70;;
77453;SDS011;66538;53.150;18.160;2023-07-31T12:10:50;6.00;;;2.20;;
77453;SDS011;66538;53.150;18.160;2023-07-31T12:13:22;7.30;;;2.00;;
77453;SDS011;66538;53.150;18.160;2023-07-31T12:15:53;3.70;;;1.30;;
77453;SDS011;66538;53.150;18.160;2023-07-31T12:18:23;3.70;;;1.50;;
77453;SDS011;66538;53.150;18.160;2023-07-31T12:20:55;4.80;;;1.50;;
77453;SDS011;66538;53.150;18.160;2023-07-31T12:23:27;3.40;;;1.40;;
77453;SDS011;66538;53.150;18.160;2023-07-31T12:28:35;3.40;;;1.30;;
77453;SDS011;66538;53.150;18.160;2023-07-31T12:31:04;3.20;;;1.40;;
77453;SDS011;66538;53.150;18.160;2023-07-31T12:33:32;3.40;;;1.40;;
77453;SDS011;66538;53.150;18.160;2023-07-31T12:36:01;4.20;;;1.60;;
77453;SDS011;66538;53.150;18.160;2023-07-31T12:38:30;4.80;;;1.70;;
77453;SDS011;66538;53.150;18.160;2023-07-31T12:40:57;3.50;;;1.20;;
77453;SDS011;66538;53.150;18.160;2023-07-31T12:43:24;4.30;;;1.70;;
77453;SDS011;66538;53.150;18.160;2023-07-31T12:45:50;5.30;;;1.60;;
77453;SDS011;66538;53.150;18.160;2023-07-31T12:48:17;4.00;;;1.30;;
77453;SDS011;66538;53.150;18.160;2023-07-31T12:50:44;4.10;;;1.60;;
77453;SDS011;66538;53.150;18.160;2023-07-31T12:53:10;4.30;;;1.60;;
77453;SDS011;66538;53.150;18.160;2023-07-31T12:55:37;3.20;;;1.20;;
77453;SDS011;66538;53.150;18.160;2023-07-31T12:58:04;3.00;;;1.30;;
77453;SDS011;66538;53.150;18.160;2023-07-31T13:00:30;4.60;;;1.50;;
77453;SDS011;66538;53.150;18.160;2023-07-31T13:02:57;3.80;;;1.60;;
77453;SDS011;66538;53.150;18.160;2023-07-31T13:05:23;4.00;;;1.60;;
77453;SDS011;66538;53.150;18.160;2023-07-31T13:07:50;4.60;;;1.70;;
77453;SDS011;66538;53.150;18.160;2023-07-31T13:10:17;5.00;;;1.60;;
77453;SDS011;66538;53.150;18.160;2023-07-31T13:12:43;4.40;;;1.70;;
77453;SDS011;66538;53.150;18.160;2023-07-31T13:15:10;5.50;;;1.70;;
77453;SDS011;66538;53.150;18.160;2023-07-31T13:17:36;4.20;;;1.90;;
77453;SDS011;66538;53.150;18.160;2023-07-31T13:20:04;4.00;;;1.90;;
77453;SDS011;66538;53.150;18.160;2023-07-31T13:22:31;6.30;;;1.90;;
77453;SDS011;66538;53.150;18.160;2023-07-31T13:24:58;5.80;;;2.90;;
77453;SDS011;66538;53.150;18.160;2023-07-31T13:27:25;5.80;;;2.20;;
77453;SDS011;66538;53.150;18.160;2023-07-31T13:29:51;4.00;;;2.30;;
77453;SDS011;66538;53.150;18.160;2023-07-31T13:32:19;4.40;;;2.10;;
77453;SDS011;66538;53.150;18.160;2023-07-31T13:34:46;4.80;;;2.10;;
77453;SDS011;66538;53.150;18.160;2023-07-31T13:37:14;5.70;;;2.70;;
77453;SDS011;66538;53.150;18.160;2023-07-31T13:39:41;6.00;;;3.20;;
77453;SDS011;66538;53.150;18.160;2023-07-31T13:42:08;10.80;;;3.80;;
77453;SDS011;66538;53.150;18.160;2023-07-31T13:44:38;8.00;;;3.60;;
77453;SDS011;66538;53.150;18.160;2023-07-31T13:47:06;9.40;;;3.50;;
77453;SDS011;66538;53.150;18.160;2023-07-31T13:49:33;7.30;;;2.40;;
77453;SDS011;66538;53.150;18.160;2023-07-31T13:52:03;5.50;;;2.40;;
77453;SDS011;66538;53.150;18.160;2023-07-31T13:54:30;5.30;;;2.30;;
77453;SDS011;66538;53.150;18.160;2023-07-31T13:56:56;4.80;;;2.00;;
77453;SDS011;66538;53.150;18.160;2023-07-31T13:59:23;7.80;;;2.40;;
77453;SDS011;66538;53.150;18.160;2023-07-31T14:01:50;4.50;;;1.90;;
77453;SDS011;66538;53.150;18.160;2023-07-31T14:04:17;7.70;;;2.50;;
77453;SDS011;66538;53.150;18.160;2023-07-31T14:06:44;5.80;;;2.20;;
77453;SDS011;66538;53.150;18.160;2023-07-31T14:09:11;4.50;;;1.70;;
77453;SDS011;66538;53.150;18.160;2023-07-31T14:11:37;7.60;;;2.30;;
77453;SDS011;66538;53.150;18.160;2023-07-31T14:14:04;7.10;;;2.00;;
77453;SDS011;66538;53.150;18.160;2023-07-31T14:16:31;8.00;;;2.10;;
77453;SDS011;66538;53.150;18.160;2023-07-31T14:18:57;5.40;;;1.90;;
77453;SDS011;66538;53.150;18.160;2023-07-31T14:21:25;5.40;;;1.80;;
77453;SDS011;66538;53.150;18.160;2023-07-31T14:23:52;8.20;;;3.40;;
77453;SDS011;66538;53.150;18.160;2023-07-31T14:26:19;22.20;;;6.80;;
77453;SDS011;66538;53.150;18.160;2023-07-31T14:28:46;21.40;;;6.00;;
77453;SDS011;66538;53.150;18.160;2023-07-31T14:31:12;16.30;;;6.30;;
77453;SDS011;66538;53.150;18.160;2023-07-31T14:33:39;17.10;;;5.20;;
77453;SDS011;66538;53.150;18.160;2023-07-31T14:36:06;16.90;;;4.60;;
77453;SDS011;66538;53.150;18.160;2023-07-31T14:38:32;8.30;;;3.10;;
77453;SDS011;66538;53.150;18.160;2023-07-31T14:40:59;7.50;;;2.50;;
77453;SDS011;66538;53.150;18.160;2023-07-31T14:43:26;4.80;;;2.10;;
77453;SDS011;66538;53.150;18.160;2023-07-31T14:45:53;4.60;;;2.00;;
77453;SDS011;66538;53.150;18.160;2023-07-31T14:48:22;4.00;;;1.80;;
77453;SDS011;66538;53.150;18.160;2023-07-31T14:50:48;5.70;;;2.20;;
77453;SDS011;66538;53.150;18.160;2023-07-31T14:53:15;4.80;;;2.30;;
77453;SDS011;66538;53.150;18.160;2023-07-31T14:55:41;6.80;;;2.50;;
77453;SDS011;66538;53.150;18.160;2023-07-31T14:58:08;7.80;;;3.80;;
77453;SDS011;66538;53.150;18.160;2023-07-31T15:00:37;10.60;;;3.60;;
77453;SDS011;66538;53.150;18.160;2023-07-31T15:03:03;11.50;;;2.40;;
77453;SDS011;66538;53.150;18.160;2023-07-31T15:05:30;5.50;;;2.10;;
77453;SDS011;66538;53.150;18.160;2023-07-31T15:07:57;4.30;;;2.30;;